Time;durP1;ratioP1;P1;durP2;ratioP2;P2;SDS_P1;SDS_P2;PMS_P1;PMS_P2;Temp;Humidity;BMP_temperature;BMP_pressure;BME280_temperature;BME280_humidity;BME280_pressure;Samples;Min_cycle;Max_cycle;Signal;HPM_P1;HPM_P2
2022/11/10 00:01:06;;;;;;;7.50;4.15;;;;;;;12.51;87.09;100260.66;1089121;46;20041;-85
2022/11/10 00:02:07;;;;;;;8.35;4.82;;;;;;;12.50;86.98;100264.31;1087642;54;20030;-84
2022/11/10 00:03:13;;;;;;;7.93;4.40;;;;;;;12.54;86.97;100262.16;1087585;54;20011;-83
2022/11/10 00:04:14;;;;;;;11.55;4.13;;;;;;;12.43;86.88;100264.06;1087582;54;20034;-85
2022/11/10 00:05:21;;;;;;;6.65;3.78;;;;;;;12.57;86.54;100260.03;1087622;54;20082;-85
2022/11/10 00:06:25;;;;;;;8.60;4.57;;;;;;;12.45;87.01;100264.78;1087592;54;20035;-84
2022/11/10 00:07:27;;;;;;;8.48;5.00;;;;;;;12.46;87.19;100271.00;1090032;39;20647;-83
2022/11/10 00:08:31;;;;;;;7.38;3.75;;;;;;;12.45;87.21;100263.94;1088314;46;20019;-82
2022/11/10 00:09:37;;;;;;;7.72;4.20;;;;;;;12.45;87.27;100270.13;1087564;54;20022;-83
2022/11/10 00:11:58;;;;;;;7.72;4.30;;;;;;;12.56;87.00;100262.88;1087492;54;20109;-84
2022/11/10 00:13:00;;;;;;;6.97;4.25;;;;;;;12.52;86.74;100270.38;1087584;54;20042;-85
2022/11/10 00:18:06;;;;;;;8.18;4.18;;;;;;;12.58;86.79;100268.94;1087374;54;20071;-84
2022/11/10 00:19:08;;;;;;;8.02;4.40;;;;;;;12.51;87.28;100271.38;1087469;54;20039;-85
2022/11/10 00:20:13;;;;;;;6.70;3.83;;;;;;;12.55;86.65;100262.03;1087541;54;20034;-84
2022/11/10 00:21:17;;;;;;;8.45;4.10;;;;;;;12.57;86.38;100270.75;1088839;47;20030;-85
2022/11/10 00:22:21;;;;;;;7.97;4.15;;;;;;;12.47;86.97;100273.50;1087668;54;20031;-84
2022/11/10 00:23:23;;;;;;;8.00;3.53;;;;;;;12.57;86.56;100268.06;1087590;54;20035;-84
2022/11/10 00:24:27;;;;;;;10.50;4.97;;;;;;;12.47;86.66;100272.66;1087605;54;20014;-84
2022/11/10 00:25:31;;;;;;;10.95;4.50;;;;;;;12.49;86.60;100278.72;1087203;54;20034;-85
2022/11/10 00:26:35;;;;;;;7.20;3.42;;;;;;;12.57;86.56;100275.28;1087352;54;20027;-84
2022/11/10 00:27:37;;;;;;;8.57;3.80;;;;;;;12.51;86.49;100276.72;1087030;54;20053;-84
2022/11/10 00:28:42;;;;;;;6.95;3.03;;;;;;;12.43;86.81;100273.97;1091281;39;20779;-83
2022/11/10 00:29:43;;;;;;;7.38;3.22;;;;;;;12.53;86.63;100279.25;1087090;54;20060;-85
2022/11/10 00:30:47;;;;;;;9.85;3.67;;;;;;;12.59;85.87;100275.97;1087268;54;20050;-85
2022/11/10 00:31:51;;;;;;;5.78;2.88;;;;;;;12.59;86.05;100276.81;1087382;54;20038;-86
2022/11/10 00:32:53;;;;;;;6.20;3.17;;;;;;;12.71;85.49;100277.41;1087389;54;20030;-83
2022/11/10 00:33:58;;;;;;;6.45;2.90;;;;;;;12.79;84.99;100284.72;1087449;54;20030;-84
2022/11/10 00:35:00;;;;;;;4.68;2.53;;;;;;;12.86;84.71;100279.59;1088435;47;20034;-85
2022/11/10 00:36:04;;;;;;;5.50;2.80;;;;;;;12.78;85.05;100277.66;1087422;47;20046;-82
2022/11/10 00:37:09;;;;;;;6.32;3.10;;;;;;;12.64;85.50;100277.22;1087410;54;20018;-83
2022/11/10 00:38:19;;;;;;;6.97;3.47;;;;;;;12.59;85.57;100282.19;1087858;47;20098;-84
2022/11/10 00:39:21;;;;;;;6.00;3.25;;;;;;;12.60;85.76;100283.03;1087408;54;20053;-85
2022/11/10 00:40:25;;;;;;;7.32;3.08;;;;;;;12.67;85.60;100276.06;1087397;54;20094;-85
2022/11/10 00:41:26;;;;;;;7.05;3.08;;;;;;;12.56;85.82;100284.31;1087354;54;20034;-83
2022/11/10 00:42:30;;;;;;;6.88;3.28;;;;;;;12.57;86.07;100286.00;1087365;54;20038;-85
2022/11/10 00:43:32;;;;;;;7.53;3.30;;;;;;;12.48;86.21;100279.69;1087731;39;20739;-83
2022/11/10 00:44:36;;;;;;;6.90;3.38;;;;;;;12.42;86.40;100288.38;1087390;54;20133;-84
2022/11/10 00:45:41;;;;;;;6.88;3.30;;;;;;;12.51;86.45;100292.81;1087325;54;20042;-83
2022/11/10 00:46:45;;;;;;;8.65;3.28;;;;;;;12.53;85.89;100298.03;1087384;54;20098;-84
2022/11/10 00:47:46;;;;;;;8.05;3.58;;;;;;;12.55;85.89;100293.34;1087344;54;20042;-83
2022/11/10 00:48:50;;;;;;;6.40;3.38;;;;;;;12.63;85.30;100296.97;1087301;54;20057;-83
2022/11/10 00:49:52;;;;;;;5.18;3.03;;;;;;;12.64;85.13;100290.63;1087379;54;20039;-85
2022/11/10 00:50:56;;;;;;;5.63;3.00;;;;;;;12.63;85.15;100294.28;1087263;54;20031;-85
2022/11/10 00:51:57;;;;;;;5.57;2.80;;;;;;;12.63;85.32;100296.97;1087313;54;20046;-84
2022/11/10 00:53:04;;;;;;;6.22;3.10;;;;;;;12.64;85.08;100301.34;1087399;54;20073;-85
2022/11/10 00:54:06;;;;;;;5.30;3.13;;;;;;;12.69;84.90;100294.66;1087316;54;20053;-84
2022/11/10 00:55:10;;;;;;;7.38;3.47;;;;;;;12.68;84.98;100303.72;1087329;54;20114;-85
2022/11/10 00:56:12;;;;;;;6.72;3.03;;;;;;;12.70;84.89;100307.09;1087353;54;20042;-83
2022/11/10 00:57:16;;;;;;;8.07;3.47;;;;;;;12.68;84.84;100303.72;1088765;39;20704;-84
2022/11/10 00:58:18;;;;;;;8.57;4.20;;;;;;;12.66;85.04;100303.03;1087369;54;20058;-85
2022/11/10 00:59:22;;;;;;;8.35;4.68;;;;;;;12.64;85.11;100301.34;1091803;39;20582;-82
2022/11/10 01:00:23;;;;;;;10.25;4.80;;;;;;;12.58;85.50;100304.63;1087188;54;20030;-81
2022/11/10 01:01:28;;;;;;;10.57;5.80;;;;;;;12.52;85.42;100310.59;1087091;54;20038;-82
2022/11/10 01:02:29;;;;;;;8.95;5.18;;;;;;;12.47;85.84;100318.22;1087240;54;20038;-83
2022/11/10 01:03:35;;;;;;;10.77;6.13;;;;;;;12.42;86.15;100318.69;1087247;54;20031;-82
2022/11/10 01:04:37;;;;;;;9.93;5.75;;;;;;;12.39;86.35;100315.47;1087281;54;20049;-81
2022/11/10 01:05:41;;;;;;;10.18;5.68;;;;;;;12.41;86.43;100318.84;1087383;54;20023;-82
2022/11/10 01:06:43;;;;;;;10.73;5.90;;;;;;;12.42;86.35;100325.91;1087912;47;20065;-82
2022/11/10 01:07:47;;;;;;;14.80;6.32;;;;;;;12.31;86.63;100324.28;1087286;54;20019;-81
2022/11/10 01:08:52;;;;;;;11.27;5.85;;;;;;;12.39;86.53;100324.38;1088182;47;20022;-81
2022/11/10 01:09:56;;;;;;;9.30;5.28;;;;;;;12.38;86.36;100324.50;1087326;54;20030;-82
2022/11/10 01:11:01;;;;;;;10.70;5.10;;;;;;;12.30;86.71;100322.59;1087244;54;20034;-81
2022/11/10 01:12:06;;;;;;;7.45;4.68;;;;;;;12.25;87.42;100331.06;1087359;54;20038;-81
2022/11/10 01:13:08;;;;;;;12.20;5.50;;;;;;;12.30;87.22;100331.47;1087227;54;20046;-81
2022/11/10 01:14:12;;;;;;;10.60;4.90;;;;;;;12.32;86.90;100328.66;1087896;47;20082;-81
2022/11/10 01:15:14;;;;;;;9.93;4.38;;;;;;;12.44;86.22;100323.91;1087352;54;20042;-82
2022/11/10 01:16:21;;;;;;;6.68;4.15;;;;;;;12.40;86.12;100333.25;1087195;54;20086;-81
2022/11/10 01:17:22;;;;;;;8.43;4.55;;;;;;;12.46;86.07;100338.03;1087259;54;20042;-81
2022/11/10 01:18:27;;;;;;;8.13;3.70;;;;;;;12.60;85.33;100334.81;1089230;47;20394;-81
2022/11/10 01:19:28;;;;;;;8.55;4.20;;;;;;;12.67;85.28;100328.84;1087356;54;20042;-81
2022/11/10 01:20:35;;;;;;;8.90;3.95;;;;;;;12.53;85.43;100331.06;1087167;54;20053;-82
2022/11/10 01:21:40;;;;;;;6.95;3.83;;;;;;;12.64;85.10;100333.53;1088131;47;20034;-82
2022/11/10 01:22:45;;;;;;;7.63;3.80;;;;;;;12.54;85.42;100331.88;1087347;54;20042;-81
2022/11/10 01:23:47;;;;;;;8.05;4.05;;;;;;;12.36;86.24;100340.75;1087193;54;20030;-80
2022/11/10 01:24:54;;;;;;;6.70;3.67;;;;;;;12.35;86.53;100336.38;1087274;54;20030;-81
2022/11/10 01:25:56;;;;;;;9.52;4.28;;;;;;;12.37;86.41;100338.91;1087509;47;20053;-82
2022/11/10 01:27:00;;;;;;;9.32;3.83;;;;;;;12.40;86.16;100341.28;1087277;54;20051;-82
2022/11/10 01:28:02;;;;;;;7.18;3.70;;;;;;;12.52;86.05;100341.91;1087494;47;20031;-82
2022/11/10 01:29:06;;;;;;;7.72;3.45;;;;;;;12.52;85.29;100342.78;1089576;39;20222;-82
2022/11/10 01:30:08;;;;;;;6.07;3.50;;;;;;;12.58;85.10;100341.34;1087282;54;20030;-81
2022/11/10 01:31:16;;;;;;;7.55;3.63;;;;;;;12.44;85.56;100345.38;1087985;47;20053;-82
2022/11/10 01:32:17;;;;;;;8.10;3.97;;;;;;;12.35;86.42;100343.59;1087568;54;20034;-81
2022/11/10 01:33:22;;;;;;;6.72;3.53;;;;;;;12.39;86.04;100348.50;1089075;46;20037;-81
2022/11/10 01:34:23;;;;;;;9.35;4.43;;;;;;;12.32;86.28;100345.56;1087557;54;20030;-82
2022/11/10 01:35:27;;;;;;;9.25;4.35;;;;;;;12.39;86.22;100344.94;1087657;54;20119;-83
2022/11/10 01:36:29;;;;;;;8.05;3.75;;;;;;;12.38;86.16;100349.50;1087566;54;20034;-81
2022/11/10 01:37:33;;;;;;;7.53;4.07;;;;;;;12.30;86.44;100344.88;1087667;54;20026;-81
2022/11/10 01:38:36;;;;;;;8.18;4.00;;;;;;;12.34;86.42;100353.44;1088701;46;20027;-79
2022/11/10 01:39:40;;;;;;;8.05;3.90;;;;;;;12.25;86.72;100340.94;1087642;54;20041;-82
2022/11/10 01:40:44;;;;;;;8.15;4.25;;;;;;;12.25;86.67;100352.53;1087710;46;20042;-82
2022/11/10 01:41:48;;;;;;;9.32;4.65;;;;;;;12.31;86.20;100354.59;1087580;54;20030;-81
2022/11/10 01:42:52;;;;;;;9.90;5.18;;;;;;;12.33;86.14;100349.94;1087623;54;20015;-82
2022/11/10 01:44:13;;;;;;;6.35;3.83;;;;;;;12.37;85.86;100350.47;1087607;54;20030;-81
2022/11/10 01:45:44;;;;;;;9.02;4.45;;;;;;;12.36;85.85;100353.31;1087645;54;20058;-80
2022/11/10 01:46:48;;;;;;;9.25;4.13;;;;;;;12.32;86.00;100353.59;1087192;54;20026;-81
2022/11/10 01:47:52;;;;;;;6.75;3.75;;;;;;;12.35;85.98;100363.19;1087342;54;20037;-82
2022/11/10 01:49:00;;;;;;;8.48;3.75;;;;;;;12.39;85.63;100358.34;1087562;54;20069;-80
2022/11/10 01:50:04;;;;;;;6.40;3.45;;;;;;;12.43;85.54;100360.59;1088207;46;20058;-82
2022/11/10 01:51:10;;;;;;;8.00;3.50;;;;;;;12.48;85.14;100362.81;1087750;46;20018;-83
2022/11/10 01:52:16;;;;;;;6.72;3.58;;;;;;;12.46;85.30;100360.31;1087603;54;20057;-81
2022/11/10 01:53:22;;;;;;;8.05;3.70;;;;;;;12.41;85.22;100361.75;1087651;54;20064;-84
2022/11/10 01:54:30;;;;;;;7.10;3.35;;;;;;;12.45;85.03;100369.34;1089002;46;20019;-84
2022/11/10 01:55:34;;;;;;;4.80;3.00;;;;;;;12.54;84.73;100372.13;1087610;54;20034;-85
2022/11/10 01:56:45;;;;;;;7.50;3.58;;;;;;;12.50;84.76;100376.94;1087585;54;21191;-84
2022/11/10 01:57:46;;;;;;;5.65;3.05;;;;;;;12.46;85.03;100381.75;1087751;54;20026;-84
2022/11/10 01:58:55;;;;;;;5.53;3.47;;;;;;;12.49;84.97;100372.56;1087548;54;20047;-84
2022/11/10 01:59:56;;;;;;;7.82;3.92;;;;;;;12.51;84.74;100373.25;1087644;54;20045;-84
2022/11/10 02:01:01;;;;;;;5.28;3.20;;;;;;;12.56;84.45;100383.53;1089786;46;20057;-86
2022/11/10 02:02:09;;;;;;;6.10;3.38;;;;;;;12.52;84.63;100374.97;1087654;54;20031;-83
2022/11/10 02:03:17;;;;;;;6.13;2.80;;;;;;;12.53;84.80;100378.47;1087686;54;20037;-85
2022/11/10 02:04:19;;;;;;;6.57;3.47;;;;;;;12.57;84.48;100379.88;1089616;46;20030;-84
2022/11/10 02:05:25;;;;;;;5.60;2.65;;;;;;;12.61;84.17;100378.59;1087668;54;20076;-84
2022/11/10 02:06:33;;;;;;;5.47;2.72;;;;;;;12.63;84.42;100381.94;1087562;54;20038;-85
2022/11/10 02:07:35;;;;;;;5.90;2.97;;;;;;;12.65;84.34;100382.66;1087594;54;20026;-84
2022/11/10 02:08:39;;;;;;;7.05;2.60;;;;;;;12.66;83.85;100380.81;1087944;39;20714;-84
2022/11/10 02:09:41;;;;;;;6.78;3.13;;;;;;;12.58;84.48;100381.56;1088154;46;20061;-83
2022/11/10 02:10:45;;;;;;;5.22;2.95;;;;;;;12.60;84.38;100374.22;1087612;54;20081;-83
2022/11/10 02:11:53;;;;;;;6.15;3.08;;;;;;;12.64;84.18;100380.94;1087541;54;20035;-84
2022/11/10 02:12:55;;;;;;;4.63;2.50;;;;;;;12.64;84.25;100383.63;1087630;46;20442;-83
2022/11/10 02:14:00;;;;;;;7.38;2.92;;;;;;;12.65;83.89;100382.66;1087544;54;20049;-83
2022/11/10 02:15:02;;;;;;;5.25;2.78;;;;;;;12.68;84.29;100386.84;1087601;54;20026;-87
2022/11/10 02:16:06;;;;;;;7.63;2.80;;;;;;;12.70;84.06;100382.19;1089726;39;20946;-84
2022/11/10 02:17:09;;;;;;;4.50;2.40;;;;;;;12.67;83.94;100382.47;1087528;54;20034;-84
2022/11/10 02:18:13;;;;;;;5.57;2.63;;;;;;;12.67;84.02;100386.03;1087586;54;20098;-84
2022/11/10 02:19:16;;;;;;;5.25;2.70;;;;;;;12.62;83.90;100389.16;1087554;54;20038;-83
2022/11/10 02:20:22;;;;;;;4.90;2.72;;;;;;;12.51;84.21;100392.03;1087552;54;20030;-85
2022/11/10 02:21:26;;;;;;;6.60;3.55;;;;;;;12.39;84.68;100394.06;1087660;54;20030;-83
2022/11/10 02:22:30;;;;;;;7.28;4.03;;;;;;;12.30;85.15;100393.13;1087519;54;20030;-83
2022/11/10 02:23:49;;;;;;;7.15;3.05;;;;;;;12.23;85.48;100396.56;1087516;54;20030;-84
2022/11/10 02:24:50;;;;;;;7.18;3.50;;;;;;;12.20;85.54;100402.19;1087624;54;20740;-84
2022/11/10 02:25:54;;;;;;;6.38;3.45;;;;;;;12.12;85.81;100397.56;1087582;54;20094;-85
2022/11/10 02:26:57;;;;;;;6.60;3.40;;;;;;;12.13;86.03;100402.78;1087507;54;20448;-85
2022/11/10 02:28:01;;;;;;;9.55;3.65;;;;;;;12.08;85.91;100393.50;1088035;39;20570;-82
2022/11/10 02:29:02;;;;;;;6.82;3.80;;;;;;;12.07;85.86;100397.16;1087526;54;20065;-83
2022/11/10 02:30:07;;;;;;;7.90;3.42;;;;;;;12.05;86.40;100399.97;1087631;54;20014;-84
2022/11/10 02:31:09;;;;;;;8.82;3.72;;;;;;;12.02;86.20;100402.97;1090112;46;20054;-84
2022/11/10 02:32:13;;;;;;;10.95;3.90;;;;;;;11.97;86.33;100394.47;1087629;54;20946;-83
2022/11/10 02:33:16;;;;;;;7.97;3.40;;;;;;;11.98;85.96;100401.56;1087863;54;20018;-84
2022/11/10 02:34:20;;;;;;;7.07;3.17;;;;;;;12.05;85.79;100407.19;1087869;54;20027;-83
2022/11/10 02:35:22;;;;;;;7.85;3.40;;;;;;;12.04;85.71;100409.03;1087981;54;20039;-83
2022/11/10 02:36:28;;;;;;;7.38;3.63;;;;;;;12.02;85.59;100405.63;1087916;54;20090;-84
2022/11/10 02:37:30;;;;;;;5.75;3.17;;;;;;;12.06;85.42;100408.88;1087897;54;20062;-82
2022/11/10 02:38:34;;;;;;;6.13;3.45;;;;;;;11.98;85.44;100405.09;1088871;46;20019;-83
2022/11/10 02:39:35;;;;;;;7.43;3.63;;;;;;;12.00;85.53;100412.97;1089381;46;20034;-84
2022/11/10 02:40:40;;;;;;;9.75;3.08;;;;;;;11.95;85.77;100410.69;1088300;54;20031;-84
2022/11/10 02:41:41;;;;;;;7.70;3.75;;;;;;;11.94;85.95;100409.00;1089988;46;20053;-85
2022/11/10 02:42:45;;;;;;;8.60;3.60;;;;;;;12.01;85.65;100415.50;1091607;46;20038;-84
2022/11/10 02:43:47;;;;;;;6.82;3.10;;;;;;;12.04;85.23;100418.88;1088588;46;20053;-85
2022/11/10 02:44:51;;;;;;;6.70;3.60;;;;;;;12.02;85.36;100416.34;1091069;46;20106;-83
2022/11/10 02:45:53;;;;;;;6.97;2.97;;;;;;;12.01;85.14;100414.66;1089056;46;20068;-84
2022/11/10 02:46:57;;;;;;;5.93;3.08;;;;;;;12.02;85.15;100409.16;1088443;46;20033;-83
2022/11/10 02:47:59;;;;;;;6.35;2.80;;;;;;;11.97;85.05;100414.13;1088841;46;20038;-84
2022/11/10 02:49:03;;;;;;;5.97;2.95;;;;;;;11.96;85.14;100414.22;1087528;54;20098;-85
2022/11/10 02:50:05;;;;;;;5.65;2.78;;;;;;;11.90;85.39;100421.03;1087654;54;20034;-84
2022/11/10 02:51:09;;;;;;;7.35;2.75;;;;;;;11.88;85.58;100425.66;1088058;39;20315;-83
2022/11/10 02:52:13;;;;;;;5.80;2.75;;;;;;;11.91;85.17;100419.16;1088929;39;20602;-84
2022/11/10 02:53:17;;;;;;;4.97;2.67;;;;;;;12.02;84.78;100427.91;1087563;54;20097;-84
2022/11/10 02:54:19;;;;;;;5.95;2.80;;;;;;;12.07;84.68;100424.78;1088919;46;20057;-85
2022/11/10 02:55:23;;;;;;;6.30;2.40;;;;;;;12.13;84.21;100423.38;1087566;54;20737;-84
2022/11/10 02:56:27;;;;;;;6.20;2.50;;;;;;;12.14;84.15;100425.06;1087531;54;20023;-84
2022/11/10 02:57:28;;;;;;;6.55;2.60;;;;;;;12.11;84.17;100425.34;1087624;54;20026;-86
2022/11/10 02:58:32;;;;;;;4.70;2.50;;;;;;;12.05;84.05;100426.75;1087462;54;20033;-86
2022/11/10 02:59:34;;;;;;;4.88;2.70;;;;;;;12.04;84.52;100418.88;1087439;54;20038;-85
2022/11/10 03:00:38;;;;;;;6.40;2.88;;;;;;;11.95;84.74;100426.78;1087414;54;20031;-83
2022/11/10 03:01:39;;;;;;;8.20;2.67;;;;;;;11.85;85.22;100432.13;1087509;54;20034;-82
2022/11/10 03:02:43;;;;;;;5.30;3.10;;;;;;;11.80;85.35;100431.72;1087990;39;20614;-85
2022/11/10 03:03:45;;;;;;;6.97;3.17;;;;;;;11.70;85.49;100439.78;1087465;54;20031;-85
2022/11/10 03:04:49;;;;;;;7.93;3.20;;;;;;;11.71;85.89;100436.09;1087508;54;20094;-85
2022/11/10 03:05:50;;;;;;;10.95;3.53;;;;;;;11.83;85.14;100433.28;1089107;46;20034;-85
2022/11/10 03:06:54;;;;;;;6.63;3.13;;;;;;;11.84;84.76;100441.19;1087549;54;20069;-86
2022/11/10 03:08:00;;;;;;;6.25;3.15;;;;;;;11.88;84.59;100449.78;1087455;47;20069;-83
2022/11/10 03:09:04;;;;;;;5.40;2.78;;;;;;;11.93;84.50;100441.31;1087444;54;21009;-86
2022/11/10 03:10:07;;;;;;;6.18;3.45;;;;;;;11.75;84.97;100441.19;1087917;39;20681;-85
2022/11/10 03:11:11;;;;;;;7.43;3.33;;;;;;;11.69;85.64;100447.94;1087551;54;20032;-85
2022/11/10 03:12:13;;;;;;;8.82;3.30;;;;;;;11.61;85.63;100445.16;1087428;54;20038;-84
2022/11/10 03:13:17;;;;;;;6.68;2.97;;;;;;;11.73;85.27;100443.16;1087948;46;20034;-84
2022/11/10 03:14:18;;;;;;;5.88;2.70;;;;;;;11.76;84.84;100449.06;1087983;46;20038;-85
2022/11/10 03:15:23;;;;;;;6.47;2.92;;;;;;;11.79;84.60;100451.47;1087493;54;20031;-84
2022/11/10 03:16:24;;;;;;;7.35;3.22;;;;;;;11.83;84.52;100454.69;1088209;46;20046;-83
2022/11/10 03:17:29;;;;;;;5.60;2.75;;;;;;;11.85;84.48;100450.06;1087485;54;20034;-84
2022/11/10 03:18:31;;;;;;;7.20;3.00;;;;;;;11.87;84.02;100456.13;1087456;54;20034;-85
2022/11/10 03:19:35;;;;;;;4.53;2.38;;;;;;;11.88;83.99;100455.13;1089571;46;20102;-85
2022/11/10 03:20:37;;;;;;;6.15;2.80;;;;;;;11.86;83.76;100457.09;1087443;54;20039;-83
2022/11/10 03:21:41;;;;;;;6.28;2.92;;;;;;;11.85;83.55;100463.44;1087574;54;20030;-85
2022/11/10 03:22:43;;;;;;;4.60;2.47;;;;;;;11.85;83.75;100466.13;1088457;46;20035;-85
2022/11/10 03:23:50;;;;;;;6.22;3.17;;;;;;;11.77;83.71;100460.63;1087565;54;20049;-85
2022/11/10 03:24:51;;;;;;;5.72;2.70;;;;;;;11.71;84.11;100465.56;1087621;54;20057;-84
2022/11/10 03:25:55;;;;;;;5.70;2.90;;;;;;;11.73;83.59;100457.41;1087486;54;20053;-84
2022/11/10 03:26:56;;;;;;;6.68;2.85;;;;;;;11.70;83.51;100469.25;1087527;54;20061;-85
2022/11/10 03:28:01;;;;;;;5.72;2.83;;;;;;;11.69;83.70;100466.69;1087520;54;20080;-85
2022/11/10 03:29:02;;;;;;;6.05;3.28;;;;;;;11.63;83.82;100469.94;1087508;54;20038;-84
2022/11/10 03:30:08;;;;;;;5.30;3.08;;;;;;;11.65;84.12;100465.31;1087583;54;20069;-83
2022/11/10 03:31:10;;;;;;;7.72;3.33;;;;;;;11.66;83.87;100470.50;1087720;47;20034;-85
2022/11/10 03:32:14;;;;;;;5.35;2.80;;;;;;;11.69;83.75;100472.06;1087643;54;20026;-84
2022/11/10 03:33:16;;;;;;;4.90;2.53;;;;;;;11.69;83.94;100469.38;1087599;54;20061;-85
2022/11/10 03:34:20;;;;;;;6.05;2.80;;;;;;;11.69;83.71;100480.94;1087781;54;20053;-85
2022/11/10 03:35:21;;;;;;;5.53;2.70;;;;;;;11.68;83.45;100471.22;1088412;46;20038;-84
2022/11/10 03:36:25;;;;;;;5.50;3.20;;;;;;;11.68;83.74;100479.25;1087656;54;20089;-83
2022/11/10 03:37:27;;;;;;;5.10;2.90;;;;;;;11.66;83.67;100481.22;1087719;54;20034;-85
2022/11/10 03:38:31;;;;;;;5.10;3.10;;;;;;;11.67;83.39;100482.91;1087671;54;20037;-84
2022/11/10 03:39:35;;;;;;;7.28;3.30;;;;;;;11.60;83.51;100475.59;1087643;54;20046;-85
2022/11/10 03:40:39;;;;;;;5.82;2.70;;;;;;;11.63;83.82;100470.78;1087669;54;20034;-84
2022/11/10 03:41:40;;;;;;;6.13;3.45;;;;;;;11.58;83.75;100478.41;1087711;54;20061;-85
2022/11/10 03:42:45;;;;;;;6.63;3.63;;;;;;;11.45;84.00;100476.00;1087679;54;20031;-83
2022/11/10 03:43:47;;;;;;;9.23;3.78;;;;;;;11.37;84.65;100476.69;1087651;54;20053;-84
2022/11/10 03:44:51;;;;;;;6.40;3.35;;;;;;;11.34;84.73;100479.66;1087596;54;20022;-85
2022/11/10 03:45:52;;;;;;;5.82;3.70;;;;;;;11.42;84.47;100478.13;1087655;54;20038;-85
2022/11/10 03:46:57;;;;;;;6.45;3.70;;;;;;;11.46;84.28;100469.69;1087617;54;20034;-86
2022/11/10 03:47:58;;;;;;;6.57;3.40;;;;;;;11.51;84.24;100482.63;1087579;54;20034;-84
2022/11/10 03:49:02;;;;;;;6.35;3.20;;;;;;;11.42;84.36;100475.44;1087438;54;20015;-84
2022/11/10 03:50:05;;;;;;;5.65;3.30;;;;;;;11.46;84.46;100480.38;1089007;39;20666;-84
2022/11/10 03:51:09;;;;;;;7.03;3.00;;;;;;;11.49;84.14;100476.56;1087560;54;20037;-84
2022/11/10 03:52:11;;;;;;;6.38;2.90;;;;;;;11.52;84.11;100474.47;1087899;46;20804;-84
2022/11/10 03:53:15;;;;;;;6.15;3.00;;;;;;;11.51;83.67;100485.31;1087119;54;20030;-84
2022/11/10 03:54:16;;;;;;;6.25;3.22;;;;;;;11.51;83.77;100480.78;1087500;54;20073;-85
2022/11/10 03:55:23;;;;;;;6.28;2.90;;;;;;;11.52;83.84;100489.69;1087540;54;20086;-84
2022/11/10 03:56:25;;;;;;;5.70;3.28;;;;;;;11.51;83.82;100486.16;1087575;54;20030;-84
2022/11/10 03:57:29;;;;;;;6.28;2.70;;;;;;;11.53;83.48;100491.34;1087477;54;20033;-85
2022/11/10 03:58:30;;;;;;;5.72;2.80;;;;;;;11.53;83.51;100488.69;1087498;54;20057;-85
2022/11/10 03:59:35;;;;;;;5.30;3.00;;;;;;;11.51;83.73;100493.34;1087572;54;20030;-84
2022/11/10 04:00:36;;;;;;;8.05;3.53;;;;;;;11.47;83.77;100499.97;1087407;54;20034;-85
2022/11/10 04:01:41;;;;;;;7.50;2.95;;;;;;;11.43;83.77;100506.59;1087578;54;20030;-83
2022/11/10 04:02:42;;;;;;;7.60;4.20;;;;;;;11.38;84.08;100507.00;1087482;54;20046;-84
2022/11/10 04:03:46;;;;;;;5.55;3.22;;;;;;;11.41;83.85;100508.56;1087510;54;20034;-85
2022/11/10 04:09:56;;;;;;;10.27;4.43;;;;;;;10.84;86.52;100526.00;1087615;54;20097;-85
2022/11/10 04:11:01;;;;;;;8.73;4.18;;;;;;;10.76;87.12;100520.47;1087573;54;20041;-85
2022/11/10 04:15:55;;;;;;;8.65;4.00;;;;;;;10.59;87.79;100525.47;1087644;54;20037;-84
2022/11/10 04:16:57;;;;;;;8.35;3.67;;;;;;;10.58;87.42;100529.13;1087430;54;20061;-84
2022/11/10 04:18:19;;;;;;;7.78;3.75;;;;;;;10.51;87.90;100527.13;1087450;54;20076;-84
2022/11/10 04:19:24;;;;;;;7.60;3.78;;;;;;;10.41;88.36;100525.22;1087483;54;20057;-86
2022/11/10 04:20:25;;;;;;;6.63;3.90;;;;;;;10.37;88.62;100526.50;1087600;54;20068;-86
2022/11/10 04:21:29;;;;;;;7.30;3.78;;;;;;;10.42;88.66;100526.94;1087558;54;20035;-83
2022/11/10 04:23:55;;;;;;;8.25;4.60;;;;;;;10.31;88.69;100526.97;1087106;54;20042;-86
2022/11/10 04:24:57;;;;;;;11.60;4.40;;;;;;;10.33;89.02;100533.03;1087597;54;20057;-85
2022/11/10 04:27:25;;;;;;;8.18;4.50;;;;;;;10.37;88.56;100536.28;1087284;54;20034;-83
2022/11/10 04:28:26;;;;;;;11.63;4.95;;;;;;;10.27;89.42;100542.41;1089018;39;20716;-85
2022/11/10 04:29:30;;;;;;;8.52;4.40;;;;;;;10.40;88.62;100542.25;1087462;54;20030;-85
2022/11/10 04:30:32;;;;;;;14.15;6.40;;;;;;;10.38;88.64;100546.91;1087570;54;20034;-84
2022/11/10 04:31:38;;;;;;;8.13;4.68;;;;;;;10.42;88.52;100544.81;1087570;54;20709;-84
2022/11/10 04:32:39;;;;;;;10.07;5.85;;;;;;;10.31;88.77;100543.00;1088349;47;20019;-85
2022/11/10 04:33:45;;;;;;;8.88;5.45;;;;;;;10.33;88.89;100542.88;1087511;54;20042;-83
2022/11/10 04:34:46;;;;;;;11.55;6.03;;;;;;;10.37;88.51;100549.66;1087521;54;20034;-84
2022/11/10 04:35:50;;;;;;;8.95;5.05;;;;;;;10.47;88.29;100557.78;1087598;54;20069;-84
2022/11/10 04:36:54;;;;;;;8.25;4.97;;;;;;;10.47;87.96;100558.59;1087578;54;20038;-85
2022/11/10 04:37:56;;;;;;;11.88;5.68;;;;;;;10.28;88.72;100565.50;1087601;54;20039;-83
2022/11/10 04:39:00;;;;;;;12.15;5.53;;;;;;;10.31;88.98;100559.03;1089294;47;20034;-83
2022/11/10 04:40:02;;;;;;;8.82;4.95;;;;;;;10.33;88.87;100561.59;1087676;47;20042;-83
2022/11/10 04:41:10;;;;;;;12.65;5.78;;;;;;;10.32;88.43;100566.06;1087598;54;20025;-84
2022/11/10 04:42:11;;;;;;;9.18;5.00;;;;;;;10.34;88.40;100563.28;1087550;54;20034;-83
2022/11/10 04:43:15;;;;;;;8.68;4.88;;;;;;;10.26;88.72;100558.59;1087537;54;20056;-85
2022/11/10 04:44:19;;;;;;;11.98;5.03;;;;;;;10.26;88.72;100555.91;1087501;54;20031;-87
2022/11/10 04:45:21;;;;;;;11.80;4.82;;;;;;;10.34;88.43;100561.47;1091041;39;20963;-85
2022/11/10 04:46:28;;;;;;;11.38;5.13;;;;;;;10.35;87.81;100548.94;1087522;54;20030;-84
2022/11/10 04:47:29;;;;;;;9.15;5.10;;;;;;;10.33;88.17;100554.41;1087509;54;20039;-83
2022/11/10 04:48:35;;;;;;;9.27;5.22;;;;;;;10.45;87.70;100549.88;1087434;54;20037;-83
2022/11/10 04:49:37;;;;;;;7.30;4.38;;;;;;;10.38;87.82;100554.06;1087503;54;21184;-84
2022/11/10 04:50:41;;;;;;;8.77;5.07;;;;;;;10.47;87.64;100557.78;1087458;54;20011;-85
2022/11/10 04:51:42;;;;;;;10.38;4.93;;;;;;;10.55;87.07;100564.13;1088166;47;20034;-84
2022/11/10 04:52:46;;;;;;;8.63;5.07;;;;;;;10.61;86.94;100562.75;1088832;39;20731;-82
2022/11/10 04:53:50;;;;;;;9.73;6.05;;;;;;;10.65;86.69;100568.69;1087402;54;20038;-86
2022/11/10 04:54:52;;;;;;;7.70;4.97;;;;;;;10.68;86.31;100582.63;1090498;39;20387;-85
2022/11/10 04:55:56;;;;;;;6.70;4.65;;;;;;;10.71;86.00;100581.56;1087536;54;20090;-84
2022/11/10 04:57:00;;;;;;;7.05;4.82;;;;;;;10.73;85.83;100593.81;1087399;54;20038;-86
2022/11/10 04:58:04;;;;;;;7.72;5.30;;;;;;;10.67;86.28;100590.81;1087490;54;20155;-84
2022/11/10 04:59:09;;;;;;;6.68;4.22;;;;;;;10.71;85.90;100598.44;1087446;54;20034;-84
2022/11/10 05:00:12;;;;;;;8.32;4.80;;;;;;;10.76;85.75;100598.03;1087522;54;20039;-83
2022/11/10 05:01:18;;;;;;;6.85;4.40;;;;;;;10.77;85.59;100600.56;1087426;54;20037;-85
2022/11/10 05:02:19;;;;;;;7.70;4.03;;;;;;;10.79;85.56;100599.59;1087565;54;20034;-84
2022/11/10 05:03:25;;;;;;;6.43;3.88;;;;;;;10.80;85.33;100603.97;1087808;47;20094;-85
2022/11/10 05:04:26;;;;;;;7.25;4.78;;;;;;;10.77;85.37;100597.06;1087671;54;20031;-84
2022/11/10 05:05:31;;;;;;;10.30;5.22;;;;;;;10.76;85.19;100609.59;1087897;54;20035;-84
2022/11/10 05:06:35;;;;;;;8.60;5.40;;;;;;;10.68;85.17;100609.38;1088869;39;20538;-83
2022/11/10 05:07:37;;;;;;;8.65;5.85;;;;;;;10.50;86.26;100616.31;1087913;54;20034;-85
2022/11/10 05:08:42;;;;;;;8.48;5.22;;;;;;;10.53;86.07;100610.72;1089846;39;20796;-84
2022/11/10 05:09:43;;;;;;;7.38;5.10;;;;;;;10.55;86.09;100620.28;1088061;46;20057;-85
2022/11/10 05:10:48;;;;;;;8.90;5.00;;;;;;;10.59;85.88;100611.03;1087925;46;20031;-83
2022/11/10 05:11:49;;;;;;;8.63;4.70;;;;;;;10.49;86.16;100617.28;1091397;39;20676;-85
2022/11/10 05:12:58;;;;;;;11.10;5.80;;;;;;;10.48;86.20;100612.94;1087773;54;20705;-84
2022/11/10 05:13:59;;;;;;;10.02;6.00;;;;;;;10.50;86.45;100608.28;1089303;39;20602;-84